Time;durP1;ratioP1;P1;durP2;ratioP2;P2;SDS_P1;SDS_P2;PMS_P1;PMS_P2;Temp;Humidity;BMP_temperature;BMP_pressure;BME280_temperature;BME280_humidity;BME280_pressure;Samples;Min_cycle;Max_cycle;Signal;HPM_P1;HPM_P2
2021/11/24 06:39:41;;;;;;;13.78;9.80;;;;;;;2.13;80.48;98843.39;1890072;76;28012;-60
2021/11/24 06:42:08;;;;;;;10.30;7.10;;;;;;;2.12;80.27;98845.72;1860426;77;20959;-57
2021/11/24 06:44:35;;;;;;;8.38;6.20;;;;;;;2.15;79.85;98847.95;1860469;77;21406;-57
2021/11/24 06:47:06;;;;;;;10.72;6.00;;;;;;;2.20;79.06;98840.18;1861071;77;20971;-59
2021/11/24 06:49:33;;;;;;;8.95;5.80;;;;;;;2.26;79.07;98855.16;1861420;77;20951;-61
2021/11/24 06:51:59;;;;;;;8.50;6.33;;;;;;;2.35;79.05;98855.22;1861465;77;21431;-59
2021/11/24 06:54:26;;;;;;;9.28;6.60;;;;;;;2.44;79.11;98853.09;1861160;77;21029;-58
2021/11/24 06:56:53;;;;;;;8.43;6.70;;;;;;;2.50;78.87;98850.38;1861739;77;21416;-58
2021/11/24 06:59:19;;;;;;;8.85;6.45;;;;;;;2.58;78.83;98854.09;1858991;77;20922;-61
2021/11/24 07:01:46;;;;;;;11.97;8.25;;;;;;;2.64;78.78;98857.67;1852104;77;20971;-60
2021/11/24 07:04:13;;;;;;;12.20;9.18;;;;;;;2.69;78.78;98853.86;1852053;77;20994;-60
2021/11/24 07:06:40;;;;;;;14.87;9.70;;;;;;;2.75;78.96;98857.79;1851771;77;20833;-59
2021/11/24 07:09:10;;;;;;;19.60;12.53;;;;;;;2.81;78.91;98856.09;1851392;77;21141;-60
2021/11/24 07:11:38;;;;;;;44.35;23.20;;;;;;;2.88;78.64;98857.33;1779374;80;20920;-61
2021/11/24 07:14:06;;;;;;;34.23;17.60;;;;;;;2.92;78.62;98855.34;1783727;80;21391;-60
2021/11/24 07:16:32;;;;;;;13.60;8.53;;;;;;;3.00;78.24;98854.25;1783575;80;21362;-58
2021/11/24 07:18:59;;;;;;;13.98;9.43;;;;;;;3.06;78.07;98856.82;1783745;80;20909;-55
2021/11/24 07:21:28;;;;;;;8.05;6.75;;;;;;;3.13;77.92;98856.77;1775770;80;20884;-58
2021/11/24 07:23:55;;;;;;;9.63;7.42;;;;;;;3.16;77.23;98860.27;1791030;80;20959;-60
2021/11/24 07:26:21;;;;;;;7.65;6.65;;;;;;;3.19;77.05;98858.52;1795008;80;20992;-58
2021/11/24 07:28:48;;;;;;;11.63;7.10;;;;;;;3.19;76.75;98865.13;1794904;80;20975;-58
2021/11/24 07:31:16;;;;;;;12.05;7.30;;;;;;;3.20;76.43;98864.12;1786051;79;20990;-57
2021/11/24 07:33:42;;;;;;;8.98;6.95;;;;;;;3.22;76.69;98864.19;1792422;80;21748;-59
2021/11/24 07:36:10;;;;;;;9.63;7.87;;;;;;;3.24;76.78;98863.95;1793352;80;20876;-58
2021/11/24 07:38:38;;;;;;;10.80;8.08;;;;;;;3.26;76.68;98862.70;1769808;80;20994;-59
2021/11/24 07:41:04;;;;;;;9.25;7.67;;;;;;;3.28;76.83;98865.94;1777810;80;20968;-59
2021/11/24 07:43:31;;;;;;;11.18;8.45;;;;;;;3.31;76.54;98865.50;1772654;80;20959;-59
2021/11/24 07:45:58;;;;;;;12.15;9.20;;;;;;;3.31;76.56;98872.63;1757349;80;21130;-59
2021/11/24 07:48:25;;;;;;;11.95;9.68;;;;;;;3.29;76.74;98877.34;1747981;82;21053;-60
2021/11/24 07:50:52;;;;;;;11.63;9.68;;;;;;;3.26;76.96;98875.13;1746974;82;20861;-61
2021/11/24 07:53:19;;;;;;;12.23;9.78;;;;;;;3.25;77.24;98872.20;1762841;80;21028;-63
2021/11/24 07:55:46;;;;;;;11.78;9.45;;;;;;;3.25;77.54;98874.31;1773874;80;21564;-59
2021/11/24 07:58:15;;;;;;;15.43;11.18;;;;;;;3.29;77.85;98868.08;1766542;80;21129;-61
2021/11/24 08:00:42;;;;;;;15.50;11.95;;;;;;;3.28;78.34;98859.31;1769860;80;20949;-58
2021/11/24 08:03:09;;;;;;;13.22;11.10;;;;;;;3.29;78.70;98869.40;1764106;80;20909;-60
2021/11/24 08:05:35;;;;;;;12.30;11.00;;;;;;;3.26;79.06;98865.36;1841842;77;21391;-61
2021/11/24 08:08:05;;;;;;;14.38;12.23;;;;;;;3.25;79.41;98862.40;1774940;80;20945;-59
2021/11/24 08:10:32;;;;;;;15.75;11.78;;;;;;;3.26;79.70;98865.86;1792806;79;21109;-61
2021/11/24 08:12:59;;;;;;;12.23;10.58;;;;;;;3.27;79.58;98872.79;1808176;79;21439;-62
2021/11/24 08:15:26;;;;;;;13.38;10.72;;;;;;;3.30;79.66;98871.00;1808567;79;20959;-62
2021/11/24 08:17:53;;;;;;;15.90;11.57;;;;;;;3.31;79.79;98868.66;1809071;79;20975;-58
2021/11/24 08:20:22;;;;;;;13.83;11.88;;;;;;;3.34;79.80;98868.22;1808141;79;20944;-59
2021/11/24 08:22:49;;;;;;;15.30;11.40;;;;;;;3.39;79.66;98867.83;1807426;79;21105;-59
2021/11/24 08:25:16;;;;;;;13.85;10.53;;;;;;;3.45;79.64;98864.81;1788050;79;20893;-63
2021/11/24 08:27:43;;;;;;;15.58;11.93;;;;;;;3.50;79.55;98870.25;1802542;79;21458;-60
2021/11/24 08:30:12;;;;;;;15.15;11.20;;;;;;;3.52;79.48;98877.97;1785062;79;20929;-61
2021/11/24 08:32:39;;;;;;;13.35;11.55;;;;;;;3.52;79.26;98875.31;1783201;80;21394;-60
2021/11/24 08:35:08;;;;;;;14.40;10.48;;;;;;;3.54;79.28;98880.69;1793173;79;21071;-58
2021/11/24 08:37:36;;;;;;;14.10;10.75;;;;;;;3.58;79.21;98879.20;1801406;79;21426;-58
2021/11/24 08:40:10;;;;;;;13.10;10.75;;;;;;;3.62;79.08;98879.06;1791626;79;20956;-60
2021/11/24 08:42:37;;;;;;;15.80;11.57;;;;;;;3.65;79.04;98879.92;1764068;80;20956;-61
2021/11/24 08:45:07;;;;;;;14.73;12.03;;;;;;;3.68;79.07;98876.83;1803385;79;20984;-60
2021/11/24 08:47:36;;;;;;;15.18;12.33;;;;;;;3.73;79.08;98870.34;1767607;79;21114;-60
2021/11/24 08:50:05;;;;;;;13.78;11.45;;;;;;;3.76;79.12;98864.61;1797177;79;20964;-60
2021/11/24 08:52:34;;;;;;;14.53;12.78;;;;;;;3.79;79.25;98858.83;1779166;79;21497;-60
2021/11/24 08:55:01;;;;;;;18.20;14.35;;;;;;;3.80;79.10;98856.48;1772727;80;20940;-62
2021/11/24 08:57:39;;;;;;;19.48;14.23;;;;;;;3.82;79.03;98851.77;1788256;79;21564;-58
2021/11/24 09:00:09;;;;;;;13.62;11.83;;;;;;;3.85;79.10;98859.27;1781996;80;21045;-60
2021/11/24 09:02:35;;;;;;;15.53;12.15;;;;;;;3.88;79.41;98864.13;1782723;79;21022;-58
2021/11/24 09:05:04;;;;;;;13.20;11.60;;;;;;;3.91;78.85;98845.10;1786896;79;21516;-60
2021/11/24 09:07:31;;;;;;;14.85;12.28;;;;;;;3.97;79.06;98848.19;1785452;80;20924;-61
2021/11/24 09:10:00;;;;;;;17.25;12.60;;;;;;;4.09;79.11;98849.54;1774716;80;21375;-60
2021/11/24 09:12:27;;;;;;;15.63;12.55;;;;;;;4.20;78.86;98843.95;1789131;80;21099;-59
2021/11/24 09:14:56;;;;;;;15.78;11.80;;;;;;;4.26;78.77;98841.73;1781901;80;20920;-58
2021/11/24 09:17:24;;;;;;;14.40;10.95;;;;;;;4.33;78.62;98833.14;1779486;80;21003;-58
2021/11/24 09:19:52;;;;;;;15.00;12.33;;;;;;;4.36;77.76;98832.69;1777595;79;21022;-59
2021/11/24 09:22:19;;;;;;;14.70;11.20;;;;;;;4.39;77.82;98834.35;1772085;80;21513;-60
2021/11/24 09:24:48;;;;;;;15.90;11.30;;;;;;;4.47;77.79;98831.37;1779229;80;21080;-57
2021/11/24 09:27:18;;;;;;;15.72;11.08;;;;;;;4.55;77.41;98832.84;1778679;80;21401;-61
2021/11/24 09:29:48;;;;;;;12.90;10.85;;;;;;;4.58;76.96;98834.53;1774358;80;21047;-57
2021/11/24 09:32:17;;;;;;;14.55;11.22;;;;;;;4.62;76.74;98837.52;1777831;80;20923;-62
2021/11/24 09:34:43;;;;;;;15.60;12.20;;;;;;;4.66;76.35;98830.19;1787465;80;20975;-59
2021/11/24 09:37:10;;;;;;;14.25;11.10;;;;;;;4.68;76.07;98828.13;1779995;80;21144;-57
2021/11/24 09:39:38;;;;;;;13.15;11.45;;;;;;;4.69;75.80;98827.59;1784005;79;20963;-58
2021/11/24 09:42:05;;;;;;;14.55;10.98;;;;;;;4.71;75.36;98823.66;1792036;80;20936;-61
2021/11/24 09:44:32;;;;;;;17.45;12.15;;;;;;;4.79;74.68;98821.18;1787776;80;21280;-61
2021/11/24 09:47:00;;;;;;;16.37;12.13;;;;;;;4.78;75.09;98814.28;1781597;79;20857;-59
2021/11/24 09:49:27;;;;;;;17.65;13.20;;;;;;;4.81;75.25;98817.77;1768784;79;21104;-59
2021/11/24 09:51:55;;;;;;;16.65;13.78;;;;;;;4.85;75.49;98808.33;1775147;79;20888;-61
2021/11/24 09:54:21;;;;;;;16.52;13.58;;;;;;;4.84;75.22;98806.19;1757706;80;20915;-60
2021/11/24 09:56:48;;;;;;;16.85;14.15;;;;;;;4.79;75.64;98810.56;1760842;80;20880;-59
2021/11/24 09:59:15;;;;;;;16.73;13.28;;;;;;;4.78;76.05;98812.41;1776850;79;21497;-58
2021/11/24 10:01:42;;;;;;;15.80;13.85;;;;;;;4.81;76.30;98809.30;1777461;79;21134;-59
2021/11/24 10:04:10;;;;;;;14.40;11.30;;;;;;;4.89;76.46;98808.13;1768462;80;21399;-57
2021/11/24 10:06:40;;;;;;;14.60;12.58;;;;;;;4.95;76.26;98809.84;1763701;80;20888;-59
2021/11/24 10:09:08;;;;;;;16.37;13.58;;;;;;;4.98;76.17;98805.91;1776731;80;21038;-58
2021/11/24 10:11:36;;;;;;;17.40;12.68;;;;;;;4.98;76.27;98800.09;1783233;79;20880;-66
2021/11/24 10:14:05;;;;;;;16.15;14.15;;;;;;;5.04;76.38;98797.03;1772166;80;20994;-61
2021/11/24 10:16:34;;;;;;;15.90;12.58;;;;;;;5.15;76.41;98803.63;1780169;80;20880;-59
2021/11/24 10:19:12;;;;;;;17.92;13.70;;;;;;;5.22;75.98;98801.64;1767995;80;21075;-58
2021/11/24 10:22:02;;;;;;;19.20;15.00;;;;;;;5.26;75.85;98804.11;1778462;80;20980;-59
2021/11/24 10:24:41;;;;;;;16.85;11.83;;;;;;;5.24;75.80;98801.40;1791670;80;20880;-62
2021/11/24 10:27:11;;;;;;;14.85;12.05;;;;;;;5.22;75.10;98796.84;1791741;80;23140;-60
2021/11/24 10:29:40;;;;;;;15.53;11.63;;;;;;;5.14;75.01;98792.70;1780013;79;21014;-60
2021/11/24 10:32:09;;;;;;;17.42;12.88;;;;;;;5.05;75.60;98799.95;1790891;80;20931;-59
2021/11/24 10:34:42;;;;;;;15.38;12.82;;;;;;;5.04;75.65;98793.83;1787701;80;20896;-58
2021/11/24 10:37:16;;;;;;;16.25;12.68;;;;;;;5.10;75.81;98795.56;1791915;80;20916;-60
2021/11/24 10:39:51;;;;;;;17.55;13.15;;;;;;;5.12;75.52;98792.14;1784748;80;21479;-61
2021/11/24 10:42:25;;;;;;;17.37;12.65;;;;;;;5.11;75.28;98779.89;1751629;80;20877;-61
2021/11/24 10:44:55;;;;;;;20.43;12.25;;;;;;;5.09;75.31;98792.61;1780005;80;20932;-60
2021/11/24 10:47:23;;;;;;;18.85;13.48;;;;;;;5.05;75.48;98792.80;1775827;80;20983;-61
2021/11/24 10:49:56;;;;;;;18.60;12.90;;;;;;;5.07;75.66;98788.05;1748397;82;21118;-61
2021/11/24 10:52:32;;;;;;;17.10;12.43;;;;;;;5.11;75.67;98784.42;1763018;80;21093;-61
2021/11/24 10:55:11;;;;;;;18.57;13.38;;;;;;;5.11;75.69;98786.53;1764422;80;20994;-60
2021/11/24 10:57:40;;;;;;;19.32;11.88;;;;;;;5.11;75.97;98785.20;1765551;80;21087;-62
2021/11/24 11:00:17;;;;;;;17.77;12.65;;;;;;;5.14;75.85;98783.41;1778099;80;20909;-60
2021/11/24 11:02:47;;;;;;;17.85;12.28;;;;;;;5.18;76.18;98778.45;1797646;79;20942;-60
2021/11/24 11:05:24;;;;;;;15.70;12.90;;;;;;;5.18;76.07;98783.22;1820048;78;21710;-62
2021/11/24 11:07:56;;;;;;;18.48;11.65;;;;;;;5.19;75.87;98771.56;1820841;78;20869;-62
2021/11/24 11:10:30;;;;;;;13.68;11.20;;;;;;;5.18;75.71;98773.92;1817873;78;21021;-62
2021/11/24 11:13:01;;;;;;;16.73;13.05;;;;;;;5.13;75.99;98767.21;1798650;77;21021;-63
2021/11/24 11:15:43;;;;;;;15.78;12.85;;;;;;;5.13;76.01;98771.70;1818566;78;21435;-62
2021/11/24 11:18:26;;;;;;;17.60;13.32;;;;;;;5.14;75.98;98756.05;1817769;79;21116;-61
2021/11/24 11:21:10;;;;;;;13.78;11.63;;;;;;;5.14;76.09;98752.88;1821651;78;21347;-60
2021/11/24 11:23:45;;;;;;;21.12;12.98;;;;;;;5.18;76.23;98751.34;1821378;78;20845;-59
2021/11/24 11:26:15;;;;;;;14.55;12.47;;;;;;;5.20;76.22;98754.59;1821893;78;20884;-60
2021/11/24 11:28:55;;;;;;;15.32;11.05;;;;;;;5.20;76.24;98756.44;1821227;78;21001;-59
2021/11/24 11:31:24;;;;;;;14.03;11.95;;;;;;;5.21;76.31;98760.70;1822115;78;21051;-61
2021/11/24 11:33:55;;;;;;;15.23;13.35;;;;;;;5.20;76.13;98754.59;1816727;78;20840;-62
2021/11/24 11:36:22;;;;;;;15.55;13.20;;;;;;;5.18;76.40;98755.33;1815699;79;20926;-59
2021/11/24 11:38:51;;;;;;;15.90;13.25;;;;;;;5.14;76.62;98746.23;1820731;77;20877;-63
2021/11/24 11:41:28;;;;;;;13.98;12.20;;;;;;;5.14;77.00;98746.75;1849607;77;20897;-61
2021/11/24 11:43:55;;;;;;;15.85;12.93;;;;;;;5.17;77.08;98736.47;1849080;77;21211;-60
2021/11/24 11:46:33;;;;;;;17.57;12.98;;;;;;;5.23;77.03;98736.05;1849206;77;20981;-59
2021/11/24 11:49:16;;;;;;;15.88;13.22;;;;;;;5.28;77.04;98738.78;1813363;77;20880;-62
2021/11/24 11:51:44;;;;;;;18.80;14.38;;;;;;;5.30;76.83;98734.84;1827721;77;20930;-62
2021/11/24 11:54:14;;;;;;;16.25;13.58;;;;;;;5.29;76.83;98741.22;1811167;77;20891;-60
2021/11/24 11:56:46;;;;;;;17.15;14.47;;;;;;;5.25;76.81;98724.67;1833039;77;21677;-60
2021/11/24 11:59:23;;;;;;;17.12;13.72;;;;;;;5.20;77.15;98729.37;1823152;77;20892;-60
2021/11/24 12:02:04;;;;;;;17.27;13.72;;;;;;;5.18;77.13;98728.77;1815874;78;20884;-62
2021/11/24 12:04:50;;;;;;;20.10;15.45;;;;;;;5.14;76.91;98723.66;1819164;77;20888;-59
2021/11/24 12:07:22;;;;;;;17.90;13.55;;;;;;;5.08;76.96;98720.64;1797721;78;20952;-61
2021/11/24 12:09:54;;;;;;;17.85;14.55;;;;;;;5.07;77.25;98724.33;1829697;77;20982;-60
2021/11/24 12:12:35;;;;;;;19.05;13.95;;;;;;;5.09;77.20;98720.91;1837580;77;20982;-62
2021/11/24 12:15:18;;;;;;;20.05;15.20;;;;;;;5.12;77.19;98727.59;1848974;77;20864;-60
2021/11/24 12:17:50;;;;;;;16.07;13.98;;;;;;;5.14;77.05;98723.66;1836951;77;21501;-59
2021/11/24 12:20:26;;;;;;;17.87;14.83;;;;;;;5.14;76.96;98717.02;1838162;77;20951;-62
2021/11/24 12:22:59;;;;;;;17.67;14.78;;;;;;;5.18;77.07;98715.49;1848537;77;21123;-61
2021/11/24 12:25:27;;;;;;;20.72;15.10;;;;;;;5.22;77.09;98719.31;1835599;77;20943;-60
2021/11/24 12:28:01;;;;;;;19.00;16.00;;;;;;;5.24;77.06;98718.55;1844389;77;20998;-62
2021/11/24 12:30:50;;;;;;;18.52;16.17;;;;;;;5.25;76.80;98718.03;1848721;77;20911;-62
2021/11/24 12:33:27;;;;;;;19.10;15.45;;;;;;;5.25;76.85;98716.70;1825464;77;21505;-60
2021/11/24 12:36:08;;;;;;;18.98;16.05;;;;;;;5.27;76.80;98717.27;1819223;77;21106;-60
2021/11/24 12:38:41;;;;;;;19.23;15.78;;;;;;;5.25;76.93;98706.86;1805529;79;21093;-60
2021/11/24 12:41:13;;;;;;;21.97;16.50;;;;;;;5.22;77.11;98714.52;1814327;77;20931;-58
2021/11/24 12:43:47;;;;;;;20.95;16.23;;;;;;;5.19;77.16;98709.15;1815972;79;21394;-61
2021/11/24 12:46:19;;;;;;;22.77;17.70;;;;;;;5.15;77.28;98709.35;1815750;79;20957;-60
2021/11/24 12:48:58;;;;;;;19.32;16.85;;;;;;;5.14;77.33;98709.57;1816822;79;21076;-63
2021/11/24 12:51:39;;;;;;;21.45;15.88;;;;;;;5.08;77.31;98707.88;1816527;78;20970;-60
2021/11/24 12:54:27;;;;;;;19.67;16.17;;;;;;;5.09;77.52;98704.97;1825721;77;20932;-62
2021/11/24 12:56:57;;;;;;;22.25;16.70;;;;;;;5.09;77.50;98704.16;1811056;79;21482;-59
2021/11/24 12:59:29;;;;;;;19.90;16.25;;;;;;;5.10;77.49;98706.59;1811295;79;21006;-61
2021/11/24 13:02:07;;;;;;;23.85;17.30;;;;;;;5.10;77.45;98705.27;1811069;79;21082;-58
2021/11/24 13:04:48;;;;;;;21.50;16.95;;;;;;;5.10;77.50;98707.92;1827303;77;21448;-59
2021/11/24 13:07:20;;;;;;;18.82;16.40;;;;;;;5.10;77.57;98701.29;1828941;77;21451;-59
2021/11/24 13:09:47;;;;;;;19.85;17.15;;;;;;;5.08;77.57;98703.38;1843708;77;20963;-60
2021/11/24 13:12:17;;;;;;;21.70;16.77;;;;;;;5.07;77.51;98703.08;1844255;77;20947;-59
2021/11/24 13:14:53;;;;;;;18.73;15.95;;;;;;;5.05;77.50;98705.17;1844732;77;21036;-59
2021/11/24 13:17:28;;;;;;;19.12;17.07;;;;;;;5.07;77.58;98708.91;1841200;77;20872;-61
2021/11/24 13:19:59;;;;;;;18.80;15.78;;;;;;;5.07;77.61;98712.37;1840045;77;20920;-63
2021/11/24 13:22:39;;;;;;;19.30;16.77;;;;;;;5.08;77.61;98710.02;1844035;77;20880;-59
2021/11/24 13:25:20;;;;;;;20.70;18.30;;;;;;;5.11;77.90;98713.50;1844082;77;20924;-63
2021/11/24 13:28:00;;;;;;;18.90;16.90;;;;;;;5.14;77.57;98711.71;1828825;77;21117;-58
2021/11/24 13:30:47;;;;;;;20.37;18.02;;;;;;;5.14;77.46;98711.71;1842220;77;20864;-62
